Time;durP1;ratioP1;P1;durP2;ratioP2;P2;SDS_P1;SDS_P2;PMS_P1;PMS_P2;Temp;Humidity;BMP_temperature;BMP_pressure;BME280_temperature;BME280_humidity;BME280_pressure;Samples;Min_cycle;Max_cycle;Signal;HPM_P1;HPM_P2
2022/09/07 00:00:55;;;;;;;2.95;1.20;;;24.40;41.50;;;;;;5091369;28;20071;-10
2022/09/07 00:03:21;;;;;;;1.40;1.25;;;24.30;41.40;;;;;;5091007;28;20048;-10
2022/09/07 00:05:49;;;;;;;1.60;1.45;;;24.40;41.40;;;;;;5091323;28;20052;-10
2022/09/07 00:08:16;;;;;;;2.05;1.20;;;24.40;41.40;;;;;;5091100;28;20408;-10
2022/09/07 00:10:50;;;;;;;1.20;1.10;;;24.40;41.40;;;;;;5090980;28;20412;-10
2022/09/07 00:13:16;;;;;;;1.50;1.30;;;24.30;41.30;;;;;;5090920;28;20048;-10
2022/09/07 00:15:41;;;;;;;1.67;1.00;;;24.40;41.40;;;;;;5090821;28;20070;-10
2022/09/07 00:18:07;;;;;;;1.35;1.25;;;24.40;41.30;;;;;;5090911;28;20111;-10
2022/09/07 00:20:33;;;;;;;1.08;1.00;;;24.40;41.30;;;;;;5090894;28;20044;-10
2022/09/07 00:22:59;;;;;;;1.30;1.15;;;24.40;41.30;;;;;;5090864;27;20096;-10
2022/09/07 00:25:24;;;;;;;1.30;1.20;;;24.40;41.30;;;;;;5090798;28;20048;-10
2022/09/07 00:27:50;;;;;;;1.17;1.08;;;24.40;41.40;;;;;;5090726;28;20544;-10
2022/09/07 00:30:16;;;;;;;1.50;1.20;;;24.40;41.40;;;;;;5091050;28;20044;-10
2022/09/07 00:32:41;;;;;;;1.00;1.00;;;24.40;41.30;;;;;;5090587;28;20052;-10
2022/09/07 00:35:07;;;;;;;1.00;1.00;;;24.40;41.30;;;;;;5090898;28;20472;-10
2022/09/07 00:37:33;;;;;;;1.77;1.40;;;24.40;41.40;;;;;;5090588;28;20052;-10
2022/09/07 00:39:58;;;;;;;1.20;1.10;;;24.30;41.40;;;;;;5090509;28;20108;-10
2022/09/07 00:42:24;;;;;;;1.17;1.00;;;24.30;41.40;;;;;;5090623;28;20051;-10
2022/09/07 00:45:17;;;;;;;1.23;1.10;;;24.40;41.40;;;;;;5090899;28;20131;-10
2022/09/07 00:47:46;;;;;;;1.20;1.10;;;24.40;41.40;;;;;;5090076;28;20088;-10
2022/09/07 00:50:24;;;;;;;1.35;1.25;;;24.40;41.40;;;;;;5090482;28;20060;-10
2022/09/07 00:52:56;;;;;;;1.20;1.10;;;24.40;41.40;;;;;;5090537;28;20465;-10
2022/09/07 00:55:22;;;;;;;1.33;1.20;;;24.40;41.40;;;;;;5090809;28;20049;-10
2022/09/07 00:57:53;;;;;;;1.65;1.17;;;24.40;41.40;;;;;;5089752;28;20381;-10
2022/09/07 01:00:19;;;;;;;1.20;1.10;;;24.40;41.30;;;;;;5090726;28;20048;-10
2022/09/07 01:02:48;;;;;;;1.30;1.20;;;24.40;41.40;;;;;;5090370;28;20052;-10
2022/09/07 01:05:41;;;;;;;2.20;1.20;;;24.40;41.30;;;;;;5090158;28;20055;-10
2022/09/07 01:08:08;;;;;;;1.38;1.27;;;24.40;41.30;;;;;;5089833;28;20059;-10
2022/09/07 01:10:35;;;;;;;1.35;1.23;;;24.40;41.30;;;;;;5090213;28;20495;-10
2022/09/07 01:13:01;;;;;;;1.33;1.20;;;24.40;41.30;;;;;;5090156;28;20044;-10
2022/09/07 01:16:05;;;;;;;1.23;1.08;;;24.30;41.40;;;;;;5089442;28;20052;-10
2022/09/07 01:18:56;;;;;;;1.55;1.30;;;24.40;41.40;;;;;;5089429;28;20108;-10
2022/09/07 01:22:05;;;;;;;1.00;1.00;;;24.40;41.40;;;;;;5090386;28;20052;-10
2022/09/07 01:24:41;;;;;;;0.93;0.90;;;24.40;41.40;;;;;;5086312;28;20055;-10
2022/09/07 01:28:03;;;;;;;1.92;1.55;;;24.40;41.40;;;;;;5089833;28;20052;-10
2022/09/07 01:30:34;;;;;;;1.05;0.95;;;24.30;41.40;;;;;;5090608;28;20056;-10
2022/09/07 01:33:19;;;;;;;1.98;1.33;;;24.30;41.40;;;;;;5091039;28;20056;-10
2022/09/07 01:36:18;;;;;;;1.02;1.02;;;24.30;41.50;;;;;;5090418;28;20052;-10
2022/09/07 01:38:51;;;;;;;1.13;1.02;;;24.30;41.50;;;;;;5089316;28;20056;-10
2022/09/07 01:41:35;;;;;;;1.15;1.05;;;24.30;41.40;;;;;;5089960;28;20126;-10
2022/09/07 01:44:15;;;;;;;1.00;1.00;;;24.30;41.40;;;;;;5089781;28;20048;-10
2022/09/07 01:47:04;;;;;;;1.85;1.35;;;24.30;41.40;;;;;;5089916;28;20048;-10
2022/09/07 01:49:58;;;;;;;1.10;1.00;;;24.20;41.40;;;;;;5070903;27;20434;-10
2022/09/07 01:52:39;;;;;;;1.40;1.30;;;24.20;41.50;;;;;;5090004;28;20116;-10
2022/09/07 01:55:34;;;;;;;0.93;0.93;;;24.30;41.50;;;;;;5089746;28;20044;-10
2022/09/07 01:58:37;;;;;;;1.50;1.30;;;24.30;42.10;;;;;;5089459;28;20094;-10
2022/09/07 02:01:11;;;;;;;1.40;1.15;;;24.30;41.60;;;;;;5089776;28;20056;-10
2022/09/07 02:03:48;;;;;;;1.20;1.10;;;24.20;41.50;;;;;;5089541;28;20060;-10
2022/09/07 02:06:32;;;;;;;1.60;1.00;;;24.30;41.50;;;;;;5089178;28;20100;-10
2022/09/07 02:09:03;;;;;;;1.08;1.02;;;24.30;41.50;;;;;;5089784;28;20067;-10
2022/09/07 02:11:38;;;;;;;1.15;1.00;;;24.30;41.50;;;;;;5089402;28;20087;-10
2022/09/07 02:14:24;;;;;;;1.08;1.05;;;24.30;41.50;;;;;;5089178;28;20055;-10
2022/09/07 02:16:56;;;;;;;1.20;1.10;;;24.20;41.50;;;;;;5088988;28;20079;-10
2022/09/07 02:19:25;;;;;;;1.20;1.10;;;24.20;41.50;;;;;;5071076;28;20533;-10
2022/09/07 02:21:58;;;;;;;1.10;1.00;;;24.30;41.50;;;;;;5089241;28;20135;-10
2022/09/07 02:24:38;;;;;;;1.00;0.90;;;24.30;41.50;;;;;;5088829;28;20442;-10
2022/09/07 02:27:10;;;;;;;1.70;1.40;;;24.20;41.50;;;;;;5090056;28;20055;-10
2022/09/07 02:29:37;;;;;;;1.58;1.48;;;24.30;41.50;;;;;;5092051;28;20060;-10
2022/09/07 02:32:03;;;;;;;1.05;1.00;;;24.20;41.50;;;;;;5091909;28;20119;-10
2022/09/07 02:34:29;;;;;;;1.27;1.02;;;24.20;41.60;;;;;;5091795;28;20048;-10
2022/09/07 02:36:57;;;;;;;1.15;1.08;;;24.20;41.60;;;;;;5091872;28;20135;-10
2022/09/07 02:39:22;;;;;;;1.00;1.00;;;24.20;41.60;;;;;;5091672;28;20185;-10
2022/09/07 02:41:48;;;;;;;1.20;1.10;;;24.20;41.60;;;;;;5092699;28;20100;-10
2022/09/07 02:44:23;;;;;;;1.30;1.20;;;24.20;41.60;;;;;;5092507;28;20059;-10
2022/09/07 02:46:59;;;;;;;1.15;1.10;;;24.20;41.60;;;;;;5092101;28;20409;-11
2022/09/07 02:49:59;;;;;;;1.67;1.15;;;24.20;41.60;;;;;;5092086;28;20056;-10
2022/09/07 02:52:45;;;;;;;1.20;1.10;;;24.20;41.60;;;;;;5092070;28;20135;-10
2022/09/07 02:55:30;;;;;;;2.13;1.23;;;24.20;41.50;;;;;;5091927;28;20052;-10
2022/09/07 02:58:21;;;;;;;1.60;1.30;;;24.20;41.50;;;;;;5071479;28;20093;-10
2022/09/07 03:01:02;;;;;;;0.98;0.98;;;24.20;41.50;;;;;;5091880;28;20055;-10
2022/09/07 03:03:59;;;;;;;1.23;1.13;;;24.20;41.50;;;;;;5092114;28;20488;-10
2022/09/07 03:06:48;;;;;;;1.05;0.98;;;24.20;41.60;;;;;;5091746;28;20044;-10
2022/09/07 03:09:21;;;;;;;1.35;1.23;;;24.20;41.50;;;;;;5091588;28;20059;-10
2022/09/07 03:11:48;;;;;;;2.58;1.30;;;24.20;41.50;;;;;;5092096;28;20492;-10
2022/09/07 03:14:15;;;;;;;1.20;1.10;;;24.20;41.50;;;;;;5092158;28;20095;-10
2022/09/07 03:16:41;;;;;;;1.15;1.05;;;24.20;41.50;;;;;;5091855;28;20052;-10
2022/09/07 03:19:07;;;;;;;1.30;1.20;;;24.20;41.60;;;;;;5091305;28;20457;-10
2022/09/07 03:21:34;;;;;;;1.00;1.00;;;24.20;41.60;;;;;;5091532;28;20080;-10
2022/09/07 03:24:00;;;;;;;0.90;0.90;;;24.20;41.60;;;;;;5092179;28;20052;-10
2022/09/07 03:26:26;;;;;;;1.52;1.40;;;24.20;41.60;;;;;;5091503;28;20108;-10
2022/09/07 03:28:52;;;;;;;1.13;1.05;;;24.20;41.60;;;;;;5091442;28;20048;-10
2022/09/07 03:31:17;;;;;;;1.42;1.13;;;24.20;41.60;;;;;;5091476;28;20052;-10
2022/09/07 03:33:43;;;;;;;1.25;1.15;;;24.20;41.60;;;;;;5092014;28;20083;-10
2022/09/07 03:36:08;;;;;;;1.17;1.08;;;24.20;41.50;;;;;;5073504;28;20048;-10
2022/09/07 03:38:34;;;;;;;1.95;1.08;;;24.20;41.50;;;;;;5090673;28;20052;-10
2022/09/07 03:41:01;;;;;;;1.30;1.10;;;24.20;41.50;;;;;;5091715;28;20048;-10
2022/09/07 03:43:27;;;;;;;2.22;1.25;;;24.20;41.60;;;;;;5091852;28;20150;-10
2022/09/07 03:46:01;;;;;;;1.17;1.08;;;24.20;41.50;;;;;;5091317;28;20519;-10
2022/09/07 03:48:30;;;;;;;1.30;1.20;;;24.20;41.50;;;;;;5091370;28;20060;-10
2022/09/07 03:51:01;;;;;;;1.00;1.00;;;24.20;41.50;;;;;;5091563;28;20477;-10
2022/09/07 03:53:37;;;;;;;0.90;0.90;;;24.20;41.50;;;;;;5091304;28;20548;-10
2022/09/07 03:56:06;;;;;;;1.00;1.00;;;24.20;41.50;;;;;;5091728;28;20066;-10
2022/09/07 03:58:33;;;;;;;1.52;1.20;;;24.20;41.60;;;;;;5090752;28;20044;-11
2022/09/07 04:01:03;;;;;;;1.17;1.08;;;24.20;41.60;;;;;;5072928;27;20059;-9
2022/09/07 04:03:29;;;;;;;1.00;1.00;;;24.20;41.60;;;;;;5091613;28;20048;-10
2022/09/07 04:05:57;;;;;;;2.47;1.48;;;24.20;41.60;;;;;;5091335;28;20044;-10
2022/09/07 04:08:31;;;;;;;1.30;1.10;;;24.20;41.60;;;;;;5091047;28;20446;-10
2022/09/07 04:10:58;;;;;;;1.42;1.13;;;24.20;41.60;;;;;;5091289;28;20456;-10
2022/09/07 04:13:24;;;;;;;1.17;1.08;;;24.10;41.60;;;;;;5090968;28;20485;-10
2022/09/07 04:15:50;;;;;;;1.10;1.00;;;24.20;41.60;;;;;;5090887;28;20055;-10
2022/09/07 04:18:16;;;;;;;1.17;1.00;;;24.20;41.60;;;;;;5090923;28;20060;-10
2022/09/07 04:20:42;;;;;;;1.40;1.30;;;24.20;42.20;;;;;;5090862;28;20048;-10
2022/09/07 04:23:08;;;;;;;1.30;1.20;;;24.10;41.70;;;;;;5090852;28;20059;-10
2022/09/07 04:25:34;;;;;;;1.10;1.10;;;24.10;41.70;;;;;;5072625;28;20052;-10
2022/09/07 04:28:00;;;;;;;1.27;1.17;;;24.10;41.60;;;;;;5090809;28;20052;-10
2022/09/07 04:30:25;;;;;;;1.73;1.25;;;24.10;41.60;;;;;;5090588;28;20054;-10
2022/09/07 04:32:51;;;;;;;1.30;1.13;;;24.10;41.60;;;;;;5090753;28;20408;-10
2022/09/07 04:35:17;;;;;;;1.30;1.20;;;24.10;41.60;;;;;;5091173;28;20059;-10
2022/09/07 04:37:43;;;;;;;1.67;1.33;;;24.20;41.60;;;;;;5090920;28;20056;-9
2022/09/07 04:40:09;;;;;;;2.70;1.55;;;24.20;41.60;;;;;;5090957;28;20131;-10
2022/09/07 04:42:35;;;;;;;1.65;1.25;;;24.20;41.60;;;;;;5090533;28;20079;-10
2022/09/07 04:45:01;;;;;;;1.13;1.00;;;24.20;41.60;;;;;;5090557;28;20103;-10
2022/09/07 04:47:29;;;;;;;1.17;1.08;;;24.20;41.60;;;;;;5090447;28;20139;-10
2022/09/07 04:49:56;;;;;;;1.77;1.30;;;24.20;41.60;;;;;;5089751;28;20067;-10
2022/09/07 04:52:23;;;;;;;1.30;1.20;;;24.10;41.60;;;;;;5090379;28;20071;-10
2022/09/07 04:54:50;;;;;;;0.90;0.90;;;24.20;41.60;;;;;;5072602;28;20108;-10
2022/09/07 04:57:20;;;;;;;1.27;1.17;;;24.20;41.60;;;;;;5090381;28;20056;-10
2022/09/07 04:59:48;;;;;;;1.27;1.17;;;24.20;41.60;;;;;;5090942;27;20464;-10
2022/09/07 05:02:13;;;;;;;1.85;1.20;;;24.10;41.70;;;;;;5090126;28;20511;-10
2022/09/07 05:04:39;;;;;;;1.13;1.10;;;24.20;41.70;;;;;;5090398;28;20052;-10
2022/09/07 05:07:04;;;;;;;1.13;1.10;;;24.10;41.60;;;;;;5090047;28;20204;-10
2022/09/07 05:09:30;;;;;;;1.50;1.00;;;24.10;41.60;;;;;;5090637;28;20055;-10
2022/09/07 05:11:56;;;;;;;1.15;1.05;;;24.20;41.70;;;;;;5071560;28;20060;-10
2022/09/07 05:14:21;;;;;;;1.23;1.13;;;24.10;41.70;;;;;;5089960;28;20058;-10
2022/09/07 05:16:47;;;;;;;1.38;1.27;;;24.10;41.70;;;;;;5089956;28;20135;-10
2022/09/07 05:19:13;;;;;;;1.38;1.27;;;24.10;41.70;;;;;;5089668;28;20059;-10
2022/09/07 05:21:39;;;;;;;1.30;1.20;;;24.10;41.70;;;;;;5090399;28;20059;-10
2022/09/07 05:24:05;;;;;;;1.20;1.10;;;24.10;41.70;;;;;;5090018;28;20408;-10
2022/09/07 05:26:33;;;;;;;1.20;1.10;;;24.10;41.70;;;;;;5090484;28;20066;-10
2022/09/07 05:29:01;;;;;;;1.52;1.38;;;24.10;41.80;;;;;;5090271;28;20048;-10
2022/09/07 05:31:27;;;;;;;0.85;0.85;;;24.10;41.70;;;;;;5090252;28;20119;-10
2022/09/07 05:33:56;;;;;;;1.20;1.10;;;24.10;41.70;;;;;;5089893;28;20047;-10
2022/09/07 05:36:24;;;;;;;1.77;1.17;;;24.10;41.70;;;;;;5089690;28;20055;-10
2022/09/07 05:38:50;;;;;;;1.10;1.00;;;24.10;41.80;;;;;;5089823;28;20052;-9
2022/09/07 05:41:19;;;;;;;2.17;1.10;;;24.10;41.80;;;;;;5089846;28;20125;-10
2022/09/07 05:43:45;;;;;;;1.00;1.00;;;24.10;41.70;;;;;;5089656;28;20135;-10
2022/09/07 05:46:11;;;;;;;0.98;0.98;;;24.10;41.80;;;;;;5089759;28;20048;-10
2022/09/07 05:48:37;;;;;;;1.15;1.05;;;24.10;41.80;;;;;;5089664;28;20052;-9
2022/09/07 05:51:04;;;;;;;1.50;1.20;;;24.10;41.80;;;;;;5089603;28;20048;-10
2022/09/07 05:53:30;;;;;;;2.25;1.40;;;24.10;41.70;;;;;;5071655;28;20510;-10
2022/09/07 05:55:59;;;;;;;1.17;1.08;;;24.10;41.80;;;;;;5090098;28;20138;-10
2022/09/07 05:58:26;;;;;;;1.33;1.23;;;24.10;41.80;;;;;;5089464;28;20055;-10
2022/09/07 06:00:56;;;;;;;1.30;1.20;;;24.10;42.30;;;;;;5090357;28;20087;-10
2022/09/07 06:03:23;;;;;;;1.88;1.70;;;24.10;41.80;;;;;;5092607;28;20051;-10
2022/09/07 06:06:08;;;;;;;1.10;1.10;;;24.10;41.70;;;;;;5092556;28;20064;-10
2022/09/07 06:08:37;;;;;;;1.35;1.25;;;24.10;41.70;;;;;;5092458;28;20064;-10
2022/09/07 06:11:11;;;;;;;1.20;1.10;;;24.10;41.70;;;;;;5092495;28;20048;-10
2022/09/07 06:13:38;;;;;;;1.40;1.30;;;24.10;41.70;;;;;;5092686;28;20064;-10
2022/09/07 06:16:06;;;;;;;1.38;1.20;;;24.10;41.70;;;;;;5092510;28;20055;-10
2022/09/07 06:18:34;;;;;;;1.20;1.10;;;24.10;41.80;;;;;;5092990;28;20056;-10
2022/09/07 06:21:03;;;;;;;1.30;1.20;;;24.10;41.80;;;;;;5092206;28;20048;-10
2022/09/07 06:23:33;;;;;;;1.83;1.50;;;24.10;41.70;;;;;;5092243;28;20500;-10
2022/09/07 06:26:00;;;;;;;2.40;1.35;;;24.10;41.80;;;;;;5092222;28;20044;-10
2022/09/07 06:28:40;;;;;;;1.70;1.30;;;24.10;41.80;;;;;;5092531;28;20467;-10
2022/09/07 06:31:08;;;;;;;1.45;1.30;;;24.10;41.70;;;;;;5092152;28;20104;-10
2022/09/07 06:33:34;;;;;;;1.48;1.20;;;24.10;41.70;;;;;;5092195;28;20056;-10
2022/09/07 06:36:03;;;;;;;1.23;1.10;;;24.10;41.70;;;;;;5092059;28;20044;-10
2022/09/07 06:38:31;;;;;;;1.35;1.25;;;24.10;41.80;;;;;;5092044;28;20130;-10
2022/09/07 06:41:05;;;;;;;1.55;1.45;;;24.10;41.70;;;;;;5092354;28;20083;-10
2022/09/07 06:43:31;;;;;;;1.20;1.10;;;24.10;41.70;;;;;;5092164;28;20052;-10
2022/09/07 06:45:57;;;;;;;1.13;1.02;;;24.10;41.70;;;;;;5091995;28;20411;-10
2022/09/07 06:48:24;;;;;;;1.55;1.38;;;24.10;41.70;;;;;;5092160;28;20056;-10
2022/09/07 06:51:00;;;;;;;1.10;1.10;;;24.10;41.70;;;;;;5092244;28;20100;-10
2022/09/07 06:53:28;;;;;;;1.40;1.23;;;24.10;41.80;;;;;;5092047;28;20108;-10
2022/09/07 06:55:54;;;;;;;1.80;1.23;;;24.10;41.70;;;;;;5092154;28;20055;-10
2022/09/07 06:58:20;;;;;;;2.28;1.60;;;24.10;41.70;;;;;;5091753;28;20180;-10
2022/09/07 07:00:45;;;;;;;1.80;1.40;;;24.10;41.70;;;;;;5091931;28;20609;-10
2022/09/07 07:03:11;;;;;;;1.17;1.08;;;24.10;41.80;;;;;;5091815;28;20386;-10
2022/09/07 07:05:37;;;;;;;1.95;1.42;;;24.10;41.80;;;;;;5091742;28;20052;-10
2022/09/07 07:08:02;;;;;;;1.65;1.30;;;24.10;41.80;;;;;;5091763;28;20056;-10
2022/09/07 07:10:28;;;;;;;1.77;1.08;;;24.10;41.80;;;;;;5091546;28;20552;-10
2022/09/07 07:12:55;;;;;;;1.15;1.10;;;24.10;41.80;;;;;;5091287;28;20136;-10
2022/09/07 07:15:26;;;;;;;1.30;1.20;;;24.10;41.80;;;;;;5091848;28;20083;-10
2022/09/07 07:17:51;;;;;;;2.15;1.45;;;24.10;41.80;;;;;;5091397;28;20446;-10
2022/09/07 07:20:17;;;;;;;1.42;1.33;;;24.10;41.80;;;;;;5091597;28;20048;-10
2022/09/07 07:22:43;;;;;;;1.48;1.38;;;24.10;41.70;;;;;;5092133;28;20063;-10
2022/09/07 07:25:08;;;;;;;2.15;1.42;;;24.10;41.70;;;;;;5091940;28;20063;-10
2022/09/07 07:27:34;;;;;;;1.13;1.02;;;24.10;41.80;;;;;;5091157;28;20131;-11
2022/09/07 07:30:00;;;;;;;1.80;1.50;;;24.10;41.80;;;;;;5092071;28;20556;-10
2022/09/07 07:32:26;;;;;;;1.23;1.13;;;24.10;41.80;;;;;;5091937;28;20552;-10
2022/09/07 07:34:53;;;;;;;2.20;1.25;;;24.10;41.80;;;;;;5091367;28;20093;-10
2022/09/07 07:37:18;;;;;;;1.30;1.20;;;24.10;41.80;;;;;;5091630;28;20052;-10
2022/09/07 07:39:44;;;;;;;1.40;1.30;;;24.10;41.80;;;;;;5091433;28;20484;-10
2022/09/07 07:42:11;;;;;;;1.73;1.40;;;24.10;41.80;;;;;;5091142;28;20056;-10
2022/09/07 07:44:36;;;;;;;1.40;1.30;;;24.10;41.80;;;;;;5091420;28;20052;-10
2022/09/07 07:47:02;;;;;;;1.75;1.50;;;24.10;41.80;;;;;;5091393;28;20056;-10
2022/09/07 07:49:27;;;;;;;1.77;1.40;;;24.10;41.80;;;;;;5090972;28;20184;-10
2022/09/07 07:51:54;;;;;;;1.67;1.50;;;24.10;41.80;;;;;;5091434;28;20052;-10
2022/09/07 07:54:20;;;;;;;1.45;1.30;;;24.10;41.80;;;;;;5090630;28;20108;-10
2022/09/07 07:56:45;;;;;;;2.80;1.40;;;24.10;41.80;;;;;;5090990;28;20044;-10
2022/09/07 07:59:11;;;;;;;2.20;1.52;;;24.10;41.80;;;;;;5091433;28;20039;-10
2022/09/07 08:01:36;;;;;;;1.50;1.40;;;24.10;41.80;;;;;;5091382;28;20060;-10
2022/09/07 08:04:02;;;;;;;2.80;1.40;;;24.10;41.80;;;;;;5090998;28;20048;-10
2022/09/07 08:06:28;;;;;;;2.20;1.60;;;24.10;41.80;;;;;;5090811;28;20086;-10
2022/09/07 08:08:54;;;;;;;2.25;1.58;;;24.10;42.10;;;;;;5090107;28;20156;-10
2022/09/07 08:11:21;;;;;;;3.58;1.52;;;24.10;42.00;;;;;;5089707;28;20404;-10
2022/09/07 08:13:49;;;;;;;3.92;1.40;;;24.10;41.90;;;;;;5090874;28;20484;-10
2022/09/07 08:16:16;;;;;;;1.85;1.33;;;24.10;41.90;;;;;;5091121;28;20048;-9
2022/09/07 08:18:42;;;;;;;2.45;1.30;;;24.10;41.90;;;;;;5090834;28;20138;-10
2022/09/07 08:21:13;;;;;;;1.80;1.60;;;24.10;41.90;;;;;;5072605;28;20405;-10
2022/09/07 08:23:39;;;;;;;;;;;24.10;41.90;;;;;;5090698;28;20092;-11
2022/09/07 08:26:06;;;;;;;2.22;1.45;;;24.10;41.90;;;;;;5087468;28;19962;-10
2022/09/07 08:28:35;;;;;;;1.58;1.48;;;24.10;41.90;;;;;;5088729;28;20084;-10
2022/09/07 08:31:06;;;;;;;2.13;1.52;;;24.10;41.90;;;;;;5085204;28;20481;-10
2022/09/07 08:33:34;;;;;;;1.70;1.27;;;24.10;41.90;;;;;;5086456;28;20116;-10
2022/09/07 08:36:03;;;;;;;1.50;1.23;;;24.10;41.90;;;;;;5090041;28;20484;-11
2022/09/07 08:38:30;;;;;;;2.50;1.52;;;24.10;41.90;;;;;;5090002;28;20472;-10
2022/09/07 08:40:56;;;;;;;1.70;1.23;;;24.10;41.90;;;;;;5090583;28;20529;-10
2022/09/07 08:43:35;;;;;;;2.90;1.48;;;24.10;41.90;;;;;;5072410;27;20048;-9
2022/09/07 08:46:28;;;;;;;2.35;1.63;;;24.10;42.00;;;;;;5090189;28;20060;-9
2022/09/07 08:48:57;;;;;;;1.40;1.30;;;24.10;41.90;;;;;;5090310;28;20135;-10
2022/09/07 08:51:35;;;;;;;1.67;1.58;;;24.10;41.90;;;;;;5090378;28;20054;-9
2022/09/07 08:54:01;;;;;;;1.88;1.77;;;24.10;41.90;;;;;;5089387;28;20048;-16
2022/09/07 08:56:32;;;;;;;3.33;1.63;;;24.10;41.90;;;;;;5090168;28;20052;-10
2022/09/07 08:59:05;;;;;;;2.33;1.77;;;24.10;41.90;;;;;;5089992;28;20560;-10
2022/09/07 09:01:39;;;;;;;2.33;1.63;;;24.20;42.20;;;;;;5090091;28;20048;-12
2022/09/07 09:04:17;;;;;;;4.47;1.80;;;24.20;42.40;;;;;;5087922;28;20052;-13
2022/09/07 09:06:57;;;;;;;3.13;1.70;;;24.20;42.50;;;;;;5087785;28;20059;-11
2022/09/07 09:09:44;;;;;;;4.78;1.80;;;24.20;42.60;;;;;;5085475;28;20054;-11
2022/09/07 09:12:34;;;;;;;6.22;2.10;;;24.20;42.60;;;;;;5089220;28;20048;-12
2022/09/07 09:15:22;;;;;;;3.45;1.95;;;24.20;42.70;;;;;;5089085;28;20106;-10
2022/09/07 09:17:54;;;;;;;3.17;1.70;;;24.20;42.70;;;;;;5089495;28;20103;-10
2022/09/07 09:20:29;;;;;;;4.25;1.70;;;24.20;42.70;;;;;;5090212;28;20134;-10
2022/09/07 09:23:03;;;;;;;6.65;1.98;;;24.20;42.70;;;;;;5071856;28;20183;-10
2022/09/07 09:25:35;;;;;;;5.28;2.13;;;24.20;42.60;;;;;;5090274;28;20055;-10
2022/09/07 09:28:01;;;;;;;3.03;1.63;;;24.20;42.50;;;;;;5090197;28;20066;-10
2022/09/07 09:30:27;;;;;;;2.55;1.58;;;24.30;42.40;;;;;;5090010;28;20427;-10
2022/09/07 09:33:18;;;;;;;2.38;1.55;;;24.30;42.20;;;;;;5089984;28;20184;-10
2022/09/07 09:35:48;;;;;;;3.10;1.80;;;24.30;42.20;;;;;;5089284;28;20051;-10
2022/09/07 09:38:34;;;;;;;2.47;1.90;;;24.40;42.10;;;;;;5090120;28;20446;-10
2022/09/07 09:41:05;;;;;;;3.05;1.60;;;24.40;42.00;;;;;;5089636;28;20044;-10
2022/09/07 09:43:44;;;;;;;2.45;1.70;;;24.40;41.90;;;;;;5089828;28;20143;-10
2022/09/07 09:46:21;;;;;;;2.22;1.73;;;24.50;41.90;;;;;;5090098;28;20481;-10
2022/09/07 09:48:59;;;;;;;6.45;1.98;;;24.50;41.80;;;;;;5089927;28;20058;-10
2022/09/07 09:51:26;;;;;;;3.00;1.55;;;24.50;41.80;;;;;;5089687;28;20051;-10
2022/09/07 09:53:57;;;;;;;1.77;1.67;;;24.50;41.80;;;;;;5090072;28;20104;-10
2022/09/07 09:56:39;;;;;;;5.45;2.28;;;24.50;41.70;;;;;;5069036;28;20060;-10
2022/09/07 09:59:16;;;;;;;2.15;1.88;;;24.50;41.60;;;;;;5069578;28;20457;-10
2022/09/07 10:01:45;;;;;;;2.25;1.88;;;24.60;41.70;;;;;;5069241;28;20049;-10
2022/09/07 10:04:29;;;;;;;2.00;1.70;;;24.60;41.60;;;;;;5069214;28;20052;-10
2022/09/07 10:07:13;;;;;;;3.38;1.80;;;24.60;41.60;;;;;;5069129;28;20105;-10
2022/09/07 10:09:47;;;;;;;2.85;1.77;;;24.60;41.50;;;;;;5066944;28;20093;-11
2022/09/07 10:12:25;;;;;;;4.30;1.83;;;24.70;41.60;;;;;;5066787;28;20497;-11
2022/09/07 10:14:52;;;;;;;3.63;1.90;;;24.70;41.70;;;;;;5067036;28;20100;-13
2022/09/07 10:17:33;;;;;;;4.60;1.65;;;24.80;41.80;;;;;;5066959;28;20056;-11
2022/09/07 10:20:18;;;;;;;3.63;1.75;;;24.80;41.90;;;;;;5066781;28;20409;-12
2022/09/07 10:22:53;;;;;;;6.80;1.85;;;24.80;42.00;;;;;;5067657;28;20079;-11
2022/09/07 10:25:38;;;;;;;2.97;1.83;;;24.80;41.90;;;;;;5067917;28;20056;-10
2022/09/07 10:28:13;;;;;;;3.70;1.95;;;24.80;41.90;;;;;;5068623;28;20115;-10
2022/09/07 10:31:20;;;;;;;3.25;1.73;;;24.80;41.70;;;;;;5067427;28;20049;-10
2022/09/07 10:34:07;;;;;;;2.75;1.50;;;24.90;41.60;;;;;;5068722;28;20109;-10
2022/09/07 10:36:42;;;;;;;3.80;1.90;;;24.90;41.40;;;;;;5068887;28;20136;-9
2022/09/07 10:39:19;;;;;;;3.58;1.70;;;25.00;41.30;;;;;;5069075;28;20052;-10
2022/09/07 10:42:00;;;;;;;1.83;1.60;;;25.00;41.20;;;;;;5068806;28;20052;-10
2022/09/07 10:44:45;;;;;;;2.05;1.85;;;25.00;41.10;;;;;;5068568;28;20048;-10
2022/09/07 10:47:36;;;;;;;3.65;1.88;;;25.00;41.10;;;;;;5067968;28;20092;-10
2022/09/07 10:50:08;;;;;;;3.15;1.80;;;25.00;41.00;;;;;;5072130;28;20090;-10
2022/09/07 10:52:38;;;;;;;3.83;2.00;;;25.00;41.00;;;;;;5072278;28;20060;-10
2022/09/07 10:55:31;;;;;;;2.60;1.80;;;25.00;41.00;;;;;;5071581;28;20481;-9
2022/09/07 10:58:15;;;;;;;1.77;1.60;;;25.00;41.10;;;;;;5071587;28;20509;-10
2022/09/07 11:00:59;;;;;;;2.67;1.83;;;25.00;41.10;;;;;;5071529;28;20053;-10
2022/09/07 11:03:50;;;;;;;2.50;1.90;;;25.10;41.10;;;;;;5071730;27;20092;-10
2022/09/07 11:06:24;;;;;;;4.90;1.67;;;25.10;41.00;;;;;;5071673;28;20045;-10
2022/09/07 11:08:52;;;;;;;2.85;1.88;;;25.10;41.00;;;;;;5068119;28;20044;-10
2022/09/07 11:11:37;;;;;;;2.30;1.55;;;25.10;41.00;;;;;;5071359;28;20044;-10
2022/09/07 11:14:13;;;;;;;2.70;1.67;;;25.10;40.90;;;;;;5071733;28;20055;-10
2022/09/07 11:16:48;;;;;;;1.88;1.73;;;25.10;40.90;;;;;;5071316;28;20143;-10
2022/09/07 11:19:21;;;;;;;2.42;1.92;;;25.10;40.90;;;;;;5071762;28;20523;-10
2022/09/07 11:21:58;;;;;;;2.03;1.83;;;25.10;41.00;;;;;;5054101;28;20052;-10
2022/09/07 11:24:36;;;;;;;3.97;2.15;;;25.10;41.00;;;;;;5071200;28;20084;-10
2022/09/07 11:27:15;;;;;;;2.33;1.90;;;25.10;41.00;;;;;;5071509;28;20068;-10
2022/09/07 11:29:54;;;;;;;2.83;1.95;;;25.10;40.90;;;;;;5071361;28;20124;-10
2022/09/07 11:32:31;;;;;;;2.65;1.65;;;25.10;40.90;;;;;;5071573;28;20405;-9
2022/09/07 11:35:05;;;;;;;4.43;1.83;;;25.10;40.90;;;;;;5071520;28;20044;-10
2022/09/07 11:37:42;;;;;;;1.70;1.50;;;25.10;40.90;;;;;;5071389;28;20492;-10
2022/09/07 11:40:25;;;;;;;4.80;2.40;;;25.10;40.90;;;;;;5071345;28;20079;-10
2022/09/07 11:42:58;;;;;;;2.00;1.80;;;25.10;40.90;;;;;;5071114;28;20139;-10
2022/09/07 11:45:44;;;;;;;3.90;2.00;;;25.10;40.80;;;;;;5071207;28;20093;-10
2022/09/07 11:48:16;;;;;;;2.47;1.92;;;25.10;40.90;;;;;;5070810;28;20105;-10
2022/09/07 11:50:47;;;;;;;1.70;1.60;;;25.10;40.90;;;;;;5071169;28;20060;-10
2022/09/07 11:53:30;;;;;;;3.42;1.95;;;25.10;41.00;;;;;;5071182;28;20053;-10
2022/09/07 11:56:19;;;;;;;2.95;1.83;;;25.10;40.90;;;;;;5071247;28;20048;-10
2022/09/07 11:58:54;;;;;;;4.45;1.95;;;25.10;41.00;;;;;;5069177;28;20139;-10
2022/09/07 12:01:43;;;;;;;3.90;1.92;;;25.10;41.00;;;;;;5071496;28;20056;-10
2022/09/07 12:05:01;;;;;;;2.92;1.98;;;25.10;40.90;;;;;;5071255;28;20059;-10
2022/09/07 12:07:39;;;;;;;4.32;2.38;;;25.10;40.90;;;;;;5071007;28;20212;-9
2022/09/07 12:10:23;;;;;;;3.17;1.98;;;25.10;41.00;;;;;;5071062;28;20132;-10
2022/09/07 12:12:59;;;;;;;2.53;1.73;;;25.10;41.00;;;;;;5070687;28;20408;-9
2022/09/07 12:15:43;;;;;;;2.60;1.90;;;25.10;41.00;;;;;;5070589;28;20052;-11
2022/09/07 12:18:09;;;;;;;2.13;1.73;;;25.10;41.00;;;;;;5070964;28;20056;-10
2022/09/07 12:20:38;;;;;;;2.13;1.92;;;25.10;40.90;;;;;;5070396;28;20049;-10
2022/09/07 12:23:16;;;;;;;2.70;2.05;;;25.10;40.90;;;;;;5070543;28;20413;-10
2022/09/07 12:25:44;;;;;;;2.58;2.10;;;25.10;41.00;;;;;;5070516;28;20052;-10
2022/09/07 12:28:36;;;;;;;3.00;1.60;;;25.10;40.90;;;;;;5070634;28;20060;-10
2022/09/07 12:31:09;;;;;;;2.92;2.10;;;25.10;41.00;;;;;;5066987;28;20052;-10
2022/09/07 12:33:37;;;;;;;2.42;2.00;;;25.10;41.00;;;;;;5070908;28;20060;-10
2022/09/07 12:36:26;;;;;;;2.08;1.73;;;25.10;41.00;;;;;;5070409;28;20041;-9
2022/09/07 12:39:42;;;;;;;2.90;2.05;;;25.10;41.10;;;;;;5069991;28;20107;-10
2022/09/07 12:42:21;;;;;;;3.00;2.13;;;25.10;41.10;;;;;;5069855;28;20076;-10
2022/09/07 12:44:47;;;;;;;2.25;1.80;;;25.10;41.20;;;;;;5068336;28;20447;-13
2022/09/07 12:47:13;;;;;;;2.30;2.05;;;25.10;41.20;;;;;;5068616;28;20069;-13
2022/09/07 12:49:56;;;;;;;3.05;1.90;;;25.10;41.20;;;;;;5067683;28;20052;-10
2022/09/07 12:52:23;;;;;;;2.45;2.15;;;25.10;41.10;;;;;;5067902;28;20136;-10
2022/09/07 12:54:53;;;;;;;2.30;1.95;;;25.10;41.20;;;;;;5067830;28;20139;-12
2022/09/07 12:57:47;;;;;;;7.10;2.33;;;25.10;41.40;;;;;;5068235;28;20493;-11
2022/09/07 13:00:24;;;;;;;2.10;1.90;;;25.10;41.50;;;;;;5066832;28;20051;-11
2022/09/07 13:03:15;;;;;;;4.60;1.88;;;25.10;41.30;;;;;;5069673;28;20098;-10
2022/09/07 13:06:06;;;;;;;2.77;2.07;;;25.10;41.20;;;;;;5070002;28;20045;-10
2022/09/07 13:08:42;;;;;;;4.20;1.95;;;25.10;41.20;;;;;;5070011;28;20056;-10
2022/09/07 13:11:38;;;;;;;2.88;1.88;;;25.10;41.20;;;;;;5069579;28;20056;-10
2022/09/07 13:14:13;;;;;;;2.65;1.88;;;25.10;41.80;;;;;;5069983;28;20062;-10
2022/09/07 13:16:41;;;;;;;2.97;1.95;;;25.10;41.30;;;;;;5069725;28;20048;-10
2022/09/07 13:19:13;;;;;;;2.00;1.88;;;25.00;41.20;;;;;;5070202;28;20526;-10